CheckWX is a tool to help pilots better visualize weather data.  It is not intended as a substitute for an official pre-flight weather briefing.

22:31:05 UTC

KMKE METAR
General Mitchell International Airport
Milwaukee, Wisconsin, USA
Current

39 mins ago

KMKE 222152Z 22005KT 10SM FEW250 01/M07 A3013 RMK AO2 SLP212 T00111067
Observed
Nov-22 @ 21:52 UTC
Wind
  • 220° at 5 KTS
Visibility
10 SM
Flight Rules
VFR
Cloud Levels
  • Few at 25,000' AGL
Temperature
C / 34°F
Dewpoint
-7°C / 19°F
Humidity
56%
Altimeter
30.13" Hg
Pressure
1020.32 hPa
Previous

2 hours ago

KMKE 222052Z 21006KT 10SM CLR 02/M07 A3014 RMK AO2 SLP214 T00171067 56016
Observed
Nov-22 @ 20:52 UTC
Wind
  • 210° at 6 KTS
Visibility
10 SM
Flight Rules
VFR
Cloud Levels
  • Clear skies
Temperature
C / 36°F
Dewpoint
-7°C / 19°F
Humidity
52%
Altimeter
30.14" Hg
Pressure
1020.62 hPa
Previous

3 hours ago

KMKE 221952Z 00000KT 10SM FEW026 02/M07 A3015 RMK AO2 SLP217 T00171067
Observed
Nov-22 @ 19:52 UTC
Visibility
10 SM
Flight Rules
VFR
Cloud Levels
  • Few at 2,600' AGL
Temperature
C / 36°F
Dewpoint
-7°C / 19°F
Humidity
52%
Altimeter
30.15" Hg
Pressure
1021.02 hPa